createdAt,value
2023-04-11T00:00:59.884Z,100034.25
2023-04-11T00:03:29.063Z,100029.97
2023-04-11T00:05:56.841Z,100026.00
2023-04-11T00:08:24.489Z,100023.81
2023-04-11T00:10:52.616Z,100020.44
2023-04-11T00:13:20.211Z,100022.41
2023-04-11T00:15:47.917Z,100016.19
2023-04-11T00:18:15.500Z,100015.59
2023-04-11T00:20:42.850Z,100010.25
2023-04-11T00:23:11.034Z,100010.06
2023-04-11T00:25:38.936Z,100004.56
2023-04-11T00:28:06.799Z,100005.16
2023-04-11T00:30:34.539Z,100006.47
2023-04-11T00:33:02.481Z,100012.12
2023-04-11T00:35:30.279Z,100013.31
2023-04-11T00:37:58.767Z,100009.81
2023-04-11T00:40:26.728Z,100004.13
2023-04-11T00:42:58.885Z,99996.88
2023-04-11T00:45:39.209Z,99996.72
2023-04-11T00:48:06.950Z,99999.28
2023-04-11T00:50:36.160Z,99994.03
2023-04-11T00:53:03.390Z,99992.66
2023-04-11T00:55:30.907Z,99988.78
2023-04-11T00:57:58.671Z,99987.44
2023-04-11T01:00:26.228Z,99995.25
2023-04-11T01:02:54.734Z,100002.75
2023-04-11T01:05:22.557Z,99998.69
2023-04-11T01:07:50.430Z,100001.03
2023-04-11T01:10:18.618Z,99989.56
2023-04-11T01:12:45.867Z,99993.81
2023-04-11T01:15:16.936Z,99993.63
2023-04-11T01:17:46.882Z,99984.53
2023-04-11T01:20:14.743Z,99982.22
2023-04-11T01:22:42.960Z,99978.28
2023-04-11T01:25:11.260Z,99979.09
2023-04-11T01:27:39.111Z,99980.56
2023-04-11T01:30:06.979Z,99977.19
2023-04-11T01:32:35.358Z,99973.25
2023-04-11T01:35:02.676Z,99974.47
2023-04-11T01:37:30.720Z,99972.88
2023-04-11T01:39:58.369Z,99979.16
2023-04-11T01:42:26.949Z,99972.94
2023-04-11T01:44:54.254Z,99970.72
2023-04-11T01:47:22.562Z,99964.91
2023-04-11T01:49:50.854Z,99961.03
2023-04-11T01:52:18.239Z,99959.91
2023-04-11T01:54:45.965Z,99967.59
2023-04-11T01:57:13.314Z,99961.56
2023-04-11T01:59:40.774Z,99968.09
2023-04-11T02:02:09.286Z,99955.69
2023-04-11T02:04:37.484Z,99954.56
2023-04-11T02:09:36.827Z,99954.91
2023-04-11T02:12:05.022Z,99951.75
2023-04-11T02:14:45.633Z,99946.84
2023-04-11T02:17:14.288Z,99954.59
2023-04-11T02:19:42.201Z,99952.97
2023-04-11T02:22:09.603Z,99954.75
2023-04-11T02:24:38.841Z,99949.34
2023-04-11T02:27:07.727Z,99951.12
2023-04-11T02:29:35.481Z,99950.88
2023-04-11T02:32:03.306Z,99947.09
2023-04-11T02:34:30.923Z,99951.53
2023-04-11T02:36:58.387Z,99946.03
2023-04-11T02:39:26.670Z,99942.28
2023-04-11T02:41:57.609Z,99942.06
2023-04-11T02:46:55.813Z,99937.53
2023-04-11T02:49:25.538Z,99933.81
2023-04-11T02:51:53.571Z,99936.16
2023-04-11T02:54:21.579Z,99942.38
2023-04-11T02:56:49.191Z,99939.03
2023-04-11T02:59:16.960Z,99948.19
2023-04-11T03:01:45.718Z,99945.34
2023-04-11T03:04:15.110Z,99956.25
2023-04-11T03:06:43.946Z,99948.88
2023-04-11T03:09:14.141Z,99951.78
2023-04-11T03:11:42.102Z,99954.38
2023-04-11T03:14:09.566Z,99946.19
2023-04-11T03:16:37.676Z,99940.00
2023-04-11T03:19:06.817Z,99938.69
2023-04-11T03:21:34.511Z,99942.63
2023-04-11T03:24:05.096Z,99939.91
2023-04-11T03:26:32.651Z,99939.78
2023-04-11T03:29:00.864Z,99945.34
2023-04-11T03:31:31.288Z,99939.44
2023-04-11T03:34:00.217Z,99935.53
2023-04-11T03:36:28.618Z,99929.06
2023-04-11T03:39:00.509Z,99933.16
2023-04-11T03:41:28.032Z,99933.72
2023-04-11T03:43:55.943Z,99934.78
2023-04-11T03:46:24.680Z,99926.78
2023-04-11T03:48:52.666Z,99923.34
2023-04-11T03:51:22.480Z,99932.44
2023-04-11T03:53:52.428Z,99925.00
2023-04-11T03:56:21.566Z,99927.28
2023-04-11T03:58:49.209Z,99923.84
2023-04-11T04:01:18.708Z,99928.78
2023-04-11T04:03:47.874Z,99922.72
2023-04-11T04:06:16.300Z,99914.84
2023-04-11T04:08:45.000Z,99909.59
2023-04-11T04:11:19.808Z,99910.50
2023-04-11T04:13:47.641Z,99909.22
2023-04-11T04:16:17.780Z,99909.59
2023-04-11T04:18:45.969Z,99907.94
2023-04-11T04:21:15.505Z,99905.81
2023-04-11T04:23:47.907Z,99912.34
2023-04-11T04:26:25.804Z,99911.63
2023-04-11T04:29:10.322Z,99911.22
2023-04-11T04:31:41.611Z,99918.09
2023-04-11T04:34:14.722Z,99912.09
2023-04-11T04:36:49.493Z,99911.88
2023-04-11T04:39:18.937Z,99909.16
2023-04-11T04:41:48.826Z,99902.97
2023-04-11T04:44:17.661Z,99909.66
2023-04-11T04:46:46.346Z,99904.88
2023-04-11T04:49:15.152Z,99893.19
2023-04-11T04:51:42.977Z,99888.34
2023-04-11T04:54:13.110Z,99897.16
2023-04-11T04:56:42.104Z,99901.63
2023-04-11T04:59:14.810Z,99901.47
2023-04-11T05:01:43.268Z,99893.41
2023-04-11T05:04:12.495Z,99888.63
2023-04-11T05:06:41.806Z,99896.22
2023-04-11T05:09:10.586Z,99895.13
2023-04-11T05:11:42.620Z,99895.47
2023-04-11T05:14:14.953Z,99889.97
2023-04-11T05:16:43.041Z,99883.16
2023-04-11T05:19:15.823Z,99885.50
2023-04-11T05:21:50.869Z,99883.69
2023-04-11T05:24:24.702Z,99874.31
2023-04-11T05:26:54.075Z,99870.19
2023-04-11T05:29:26.772Z,99868.59
2023-04-11T05:31:56.584Z,99878.94
2023-04-11T05:34:29.780Z,99883.16
2023-04-11T05:37:07.183Z,99880.59
2023-04-11T05:39:37.753Z,99871.75
2023-04-11T05:42:19.830Z,99875.78
2023-04-11T05:44:48.155Z,99869.66
2023-04-11T05:47:16.192Z,99868.69
2023-04-11T05:52:18.727Z,99861.94
2023-04-11T05:54:46.602Z,99855.09
2023-04-11T05:57:21.303Z,99841.53
2023-04-11T06:00:13.373Z,99844.91
2023-04-11T06:03:12.559Z,99843.53
2023-04-11T06:08:51.825Z,99833.59
2023-04-11T06:11:34.560Z,99835.00
2023-04-11T06:14:27.191Z,99837.66
2023-04-11T06:17:16.689Z,99836.31
2023-04-11T06:20:06.216Z,99837.19
2023-04-11T06:23:02.062Z,99835.31
2023-04-11T06:25:46.382Z,99824.63
2023-04-11T06:28:32.213Z,99827.00
2023-04-11T06:31:17.959Z,99818.81
2023-04-11T06:34:04.027Z,99818.69
2023-04-11T06:36:56.716Z,99814.84
2023-04-11T06:39:26.705Z,99807.16
2023-04-11T06:41:54.885Z,99808.88
2023-04-11T06:44:27.855Z,99806.19
2023-04-11T06:47:08.780Z,99815.25
2023-04-11T06:49:41.094Z,99817.44
2023-04-11T06:52:09.018Z,99816.38
2023-04-11T06:54:36.810Z,99808.56
2023-04-11T06:57:05.231Z,99805.75
2023-04-11T06:59:35.669Z,99801.72
2023-04-11T07:02:08.098Z,99803.06
2023-04-11T07:04:37.063Z,99795.09
2023-04-11T07:07:04.900Z,99799.28
2023-04-11T07:09:33.483Z,99790.50
2023-04-11T07:12:03.401Z,99794.34
2023-04-11T07:14:45.709Z,99787.03
2023-04-11T07:17:19.912Z,99778.78
2023-04-11T07:19:50.995Z,99777.63
2023-04-11T07:22:19.779Z,99777.72
2023-04-11T07:24:55.641Z,99781.72
2023-04-11T07:27:29.126Z,99777.03
2023-04-11T07:30:08.065Z,99775.53
2023-04-11T07:32:39.903Z,99775.97
2023-04-11T07:35:08.351Z,99779.09
2023-04-11T07:37:38.872Z,99779.44
2023-04-11T07:40:16.773Z,99775.16
2023-04-11T07:42:50.233Z,99791.97
2023-04-11T07:45:24.748Z,99788.37
2023-04-11T07:47:53.222Z,99788.19
2023-04-11T07:50:26.719Z,99782.91
2023-04-11T07:53:05.744Z,99777.03
2023-04-11T07:55:40.743Z,99776.25
2023-04-11T07:58:09.615Z,99771.44
2023-04-11T08:00:38.940Z,99772.69
2023-04-11T08:05:44.893Z,99766.34
2023-04-11T08:08:17.662Z,99764.94
2023-04-11T08:10:51.997Z,99771.38
2023-04-11T08:13:21.438Z,99754.94
2023-04-11T08:15:48.936Z,99754.88
2023-04-11T08:18:21.729Z,99748.72
2023-04-11T08:20:56.998Z,99739.09
2023-04-11T08:23:32.808Z,99739.22
2023-04-11T08:26:01.690Z,99740.78
2023-04-11T08:28:30.775Z,99741.63
2023-04-11T08:31:07.226Z,99737.03
2023-04-11T08:33:42.266Z,99727.94
2023-04-11T08:36:11.564Z,99717.94
2023-04-11T08:38:40.945Z,99710.13
2023-04-11T08:41:11.691Z,99712.31
2023-04-11T08:46:25.796Z,99700.44
2023-04-11T08:49:03.933Z,99693.09
2023-04-11T08:51:31.803Z,99698.09
2023-04-11T08:54:04.080Z,99687.78
2023-04-11T08:56:36.180Z,99684.25
2023-04-11T08:59:16.018Z,99676.25
2023-04-11T09:01:44.053Z,99672.59
2023-04-11T09:04:12.382Z,99673.91
2023-04-11T09:07:01.106Z,99676.69
2023-04-11T09:09:34.010Z,99671.31
2023-04-11T09:12:05.724Z,99672.63
2023-04-11T09:14:34.249Z,99665.56
2023-04-11T09:17:04.746Z,99662.41
2023-04-11T09:19:34.984Z,99664.84
2023-04-11T09:22:09.365Z,99663.56
2023-04-11T09:24:38.071Z,99652.13
2023-04-11T09:27:09.001Z,99652.66
2023-04-11T09:29:48.916Z,99638.97
2023-04-11T09:32:30.822Z,99640.34
2023-04-11T09:35:21.456Z,99637.09
2023-04-11T09:37:56.320Z,99641.59
2023-04-11T09:40:27.050Z,99631.84
2023-04-11T09:45:51.611Z,99644.25
2023-04-11T09:48:32.101Z,99632.78
2023-04-11T09:51:09.152Z,99619.41
2023-04-11T09:53:40.769Z,99604.34
2023-04-11T09:58:52.791Z,99606.56
2023-04-11T10:01:27.513Z,99609.25
2023-04-11T10:03:56.686Z,99598.69
2023-04-11T10:06:34.383Z,99607.03
2023-04-11T10:11:45.724Z,99597.56
2023-04-11T10:14:38.665Z,99601.91
2023-04-11T10:17:22.981Z,99596.34
2023-04-11T10:19:57.098Z,99577.47
2023-04-11T10:22:41.899Z,99569.34
2023-04-11T10:25:18.269Z,99567.66
2023-04-11T10:27:53.910Z,99560.59
2023-04-11T10:30:50.076Z,99559.16
2023-04-11T10:33:26.724Z,99561.72
2023-04-11T10:36:05.599Z,99551.97
2023-04-11T10:38:46.783Z,99542.56
2023-04-11T10:41:34.920Z,99538.75
2023-04-11T10:44:18.420Z,99539.97
2023-04-11T10:46:55.988Z,99540.56
2023-04-11T10:49:38.317Z,99530.69
2023-04-11T10:52:19.072Z,99524.47
2023-04-11T10:54:53.391Z,99521.84
2023-04-11T10:57:23.809Z,99516.69
2023-04-11T10:59:51.667Z,99515.50
2023-04-11T11:02:24.563Z,99508.94
2023-04-11T11:04:52.740Z,99511.91
2023-04-11T11:07:21.825Z,99509.59
2023-04-11T11:09:55.866Z,99507.28
2023-04-11T11:12:23.733Z,99495.28
2023-04-11T11:14:52.041Z,99486.25
2023-04-11T11:17:28.425Z,99482.66
2023-04-11T11:19:57.982Z,99480.78
2023-04-11T11:22:30.928Z,99483.25
2023-04-11T11:25:07.741Z,99481.94
2023-04-11T11:27:39.679Z,99476.56
2023-04-11T11:30:12.763Z,99469.09
2023-04-11T11:35:28.821Z,99462.03
2023-04-11T11:38:02.728Z,99446.56
2023-04-11T11:40:40.515Z,99452.56
2023-04-11T11:45:46.832Z,99456.38
2023-04-11T11:48:31.142Z,99446.59
2023-04-11T11:51:02.665Z,99446.34
2023-04-11T11:53:31.054Z,99448.06
2023-04-11T11:56:15.955Z,99456.53
2023-04-11T11:58:45.641Z,99456.78
2023-04-11T12:01:16.141Z,99458.78
2023-04-11T12:03:44.844Z,99447.47
2023-04-11T12:06:14.078Z,99443.38
2023-04-11T12:08:52.709Z,99447.47
2023-04-11T12:11:21.261Z,99448.59
2023-04-11T12:13:53.915Z,99437.78
2023-04-11T12:16:23.717Z,99433.84
2023-04-11T12:19:03.760Z,99442.81
2023-04-11T12:21:34.287Z,99452.84
2023-04-11T12:24:08.540Z,99440.22
2023-04-11T12:26:38.326Z,99427.84
2023-04-11T12:29:15.619Z,99437.25
2023-04-11T12:31:54.949Z,99441.75
2023-04-11T12:34:25.012Z,99437.66
2023-04-11T12:36:54.987Z,99424.03
2023-04-11T12:39:23.189Z,99425.69
2023-04-11T12:41:57.954Z,99419.69
2023-04-11T12:44:32.846Z,99410.19
2023-04-11T12:47:08.710Z,99415.44
2023-04-11T12:49:37.300Z,99413.53
2023-04-11T12:52:14.121Z,99403.66
2023-04-11T12:54:41.942Z,99406.06
2023-04-11T12:57:13.723Z,99387.44
2023-04-11T12:59:46.988Z,99388.22
2023-04-11T13:02:38.307Z,99386.84
2023-04-11T13:05:17.461Z,99385.06
2023-04-11T13:07:48.448Z,99392.66
2023-04-11T13:10:29.011Z,99385.84
2023-04-11T13:13:08.470Z,99367.38
2023-04-11T13:15:47.758Z,99371.81
2023-04-11T13:18:17.117Z,99361.25
2023-04-11T13:20:57.500Z,99371.62
2023-04-11T13:26:04.943Z,99359.13
2023-04-11T13:28:38.826Z,99370.91
2023-04-11T13:31:11.174Z,99356.78
2023-04-11T13:33:53.110Z,99357.91
2023-04-11T13:36:29.737Z,99345.44
2023-04-11T13:39:01.683Z,99363.28
2023-04-11T13:41:42.083Z,99350.94
2023-04-11T13:48:04.003Z,99353.94
2023-04-11T13:50:49.704Z,99346.69
2023-04-11T13:53:32.037Z,99344.72
2023-04-11T13:56:10.821Z,99349.69
2023-04-11T14:01:59.671Z,99357.38
2023-04-11T14:04:44.500Z,99357.09
2023-04-11T14:07:36.843Z,99359.34
2023-04-11T14:10:19.158Z,99363.84
2023-04-11T14:13:26.084Z,99366.16
2023-04-11T14:16:13.392Z,99365.09
2023-04-11T14:21:45.294Z,99368.81
2023-04-11T14:24:39.565Z,99369.56
2023-04-11T14:29:48.059Z,99375.75
2023-04-11T14:32:24.889Z,99387.50
2023-04-11T14:34:58.426Z,99388.06
2023-04-11T14:37:38.779Z,99397.44
2023-04-11T14:40:15.719Z,99402.28
2023-04-11T14:42:46.194Z,99406.41
2023-04-11T14:45:17.132Z,99406.69
2023-04-11T14:47:45.160Z,99411.75
2023-04-11T14:50:19.758Z,99424.91
2023-04-11T14:52:53.949Z,99421.97
2023-04-11T14:55:27.760Z,99427.25
2023-04-11T14:58:10.762Z,99437.97
2023-04-11T15:00:45.007Z,99448.81
2023-04-11T15:03:27.657Z,99449.69
2023-04-11T15:06:04.920Z,99461.25
2023-04-11T15:08:35.865Z,99468.16
2023-04-11T15:11:05.116Z,99456.09
2023-04-11T15:13:48.431Z,99461.09
2023-04-11T15:16:20.605Z,99460.25
2023-04-11T15:19:04.277Z,99465.50
2023-04-11T15:21:39.993Z,99465.38
2023-04-11T15:24:08.359Z,99469.22
2023-04-11T15:26:38.779Z,99460.13
2023-04-11T15:32:21.821Z,99462.34
2023-04-11T15:35:08.700Z,99472.94
2023-04-11T15:37:57.933Z,99470.72
2023-04-11T15:46:07.854Z,99464.66
2023-04-11T15:48:39.351Z,99460.63
2023-04-11T15:51:11.770Z,99466.16
2023-04-11T15:53:46.003Z,99464.66
2023-04-11T15:56:22.788Z,99470.22
2023-04-11T15:58:53.286Z,99461.38
2023-04-11T16:01:23.894Z,99454.06
2023-04-11T16:04:11.821Z,99453.50
2023-04-11T16:06:51.940Z,99449.56
2023-04-11T16:12:00.761Z,99442.97
2023-04-11T16:14:38.720Z,99438.91
2023-04-11T16:17:19.172Z,99436.69
2023-04-11T16:19:55.994Z,99436.16
2023-04-11T16:22:37.775Z,99433.81
2023-04-11T16:25:08.189Z,99427.13
2023-04-11T16:30:24.755Z,99426.03
2023-04-11T16:33:04.015Z,99415.50
2023-04-11T16:38:11.775Z,99411.25
2023-04-11T16:40:43.119Z,99414.03
2023-04-11T16:43:24.914Z,99426.16
2023-04-11T16:45:55.842Z,99419.47
2023-04-11T16:48:31.026Z,99417.66
2023-04-11T16:51:11.449Z,99414.22
2023-04-11T16:53:47.570Z,99415.28
2023-04-11T16:56:18.315Z,99417.62
2023-04-11T16:58:48.470Z,99404.53
2023-04-11T17:01:22.013Z,99381.69
2023-04-11T17:03:55.580Z,99390.84
2023-04-11T17:06:36.757Z,99398.37
2023-04-11T17:09:06.872Z,99391.34
2023-04-11T17:11:39.683Z,99402.50
2023-04-11T17:16:58.150Z,99400.94
2023-04-11T17:22:09.403Z,99422.00
2023-04-11T17:24:41.195Z,99423.19
2023-04-11T17:27:17.203Z,99412.75
2023-04-11T17:32:35.335Z,99412.97
2023-04-11T17:40:16.096Z,99401.47
2023-04-11T17:42:54.812Z,99408.19
2023-04-11T17:45:32.742Z,99410.09
2023-04-11T17:48:09.751Z,99409.53
2023-04-11T17:53:28.510Z,99414.22
2023-04-11T17:56:04.829Z,99411.31
2023-04-11T17:58:45.672Z,99408.03
2023-04-11T18:01:21.965Z,99406.31
2023-04-11T18:03:50.935Z,99411.56
2023-04-11T18:06:25.710Z,99412.25
2023-04-11T18:09:13.612Z,99416.13
2023-04-11T18:11:48.903Z,99420.00
2023-04-11T18:14:19.857Z,99429.59
2023-04-11T18:19:23.820Z,99427.38
2023-04-11T18:21:54.678Z,99434.72
2023-04-11T18:24:31.743Z,99442.44
2023-04-11T18:32:27.798Z,99451.44
2023-04-11T18:35:07.658Z,99448.53
2023-04-11T18:37:44.982Z,99453.81
2023-04-11T18:40:26.503Z,99449.84
2023-04-11T18:43:07.323Z,99452.78
2023-04-11T18:45:43.596Z,99458.81
2023-04-11T18:48:14.837Z,99454.31
2023-04-11T18:50:50.824Z,99450.56
2023-04-11T18:53:31.116Z,99461.75
2023-04-11T18:56:03.877Z,99459.00
2023-04-11T18:58:34.873Z,99456.28
2023-04-11T19:01:16.550Z,99458.28
2023-04-11T19:06:34.076Z,99461.72
2023-04-11T19:09:23.311Z,99453.63
2023-04-11T19:11:56.962Z,99450.34
2023-04-11T19:14:30.746Z,99451.06
2023-04-11T19:17:01.711Z,99456.03
2023-04-11T19:19:31.404Z,99453.41
2023-04-11T19:22:06.702Z,99457.44
2023-04-11T19:24:45.827Z,99445.47
2023-04-11T19:27:18.683Z,99445.75
2023-04-11T19:29:46.933Z,99444.00
2023-04-11T19:32:17.863Z,99451.56
2023-04-11T19:34:50.804Z,99445.66
2023-04-11T19:37:26.395Z,99438.00
2023-04-11T19:40:07.947Z,99430.31
2023-04-11T19:42:41.855Z,99430.44
2023-04-11T19:45:23.307Z,99431.47
2023-04-11T19:47:51.321Z,99437.19
2023-04-11T19:50:23.699Z,99445.44
2023-04-11T19:53:01.746Z,99452.06
2023-04-11T19:55:31.120Z,99453.19
2023-04-11T19:57:59.007Z,99446.44
2023-04-11T20:00:37.711Z,99431.19
2023-04-11T20:03:08.806Z,99430.44
2023-04-11T20:05:36.971Z,99427.00
2023-04-11T20:08:04.853Z,99424.06
2023-04-11T20:10:38.688Z,99431.38
2023-04-11T20:15:45.389Z,99430.81
2023-04-11T20:18:24.869Z,99445.50
2023-04-11T20:20:54.686Z,99453.97
2023-04-11T20:23:31.232Z,99471.09
2023-04-11T20:26:01.084Z,99461.47
2023-04-11T20:28:42.960Z,99459.47
2023-04-11T20:31:10.753Z,99444.34
2023-04-11T20:33:44.740Z,99451.41
2023-04-11T20:36:26.686Z,99444.28
2023-04-11T20:38:58.760Z,99443.06
2023-04-11T20:41:27.923Z,99451.47
2023-04-11T20:43:57.641Z,99450.06
2023-04-11T20:46:31.524Z,99451.69
2023-04-11T20:49:09.103Z,99430.75
2023-04-11T20:54:20.841Z,99404.69
2023-04-11T20:56:48.800Z,99388.75
2023-04-11T20:59:26.826Z,99395.78
2023-04-11T21:02:00.644Z,99394.34
2023-04-11T21:04:32.757Z,99389.69
2023-04-11T21:07:03.739Z,99382.09
2023-04-11T21:09:32.237Z,99388.88
2023-04-11T21:12:00.171Z,99399.72
2023-04-11T21:14:29.603Z,99396.91
2023-04-11T21:17:00.859Z,99405.78
2023-04-11T21:19:35.312Z,99396.97
2023-04-11T21:22:05.715Z,99392.63
2023-04-11T21:24:44.601Z,99393.81
2023-04-11T21:27:40.986Z,99394.56
2023-04-11T21:30:21.274Z,99392.19
2023-04-11T21:33:13.759Z,99389.63
2023-04-11T21:35:57.035Z,99396.75
2023-04-11T21:38:41.006Z,99391.69
2023-04-11T21:41:32.648Z,99391.69
2023-04-11T21:44:22.697Z,99384.00
2023-04-11T21:47:07.942Z,99387.25
2023-04-11T21:50:01.779Z,99390.78
2023-04-11T21:52:41.851Z,99392.22
2023-04-11T21:55:35.384Z,99387.03
2023-04-11T21:58:28.597Z,99387.66
2023-04-11T22:01:13.066Z,99391.31
2023-04-11T22:04:06.321Z,99383.69
2023-04-11T22:06:46.330Z,99386.44
2023-04-11T22:09:47.046Z,99390.87
2023-04-11T22:12:28.563Z,99407.78
2023-04-11T22:15:12.938Z,99413.00
2023-04-11T22:18:03.698Z,99414.94
2023-04-11T22:20:38.211Z,99411.38
2023-04-11T22:23:33.727Z,99412.44
2023-04-11T22:26:07.793Z,99413.22
2023-04-11T22:29:03.928Z,99414.91
2023-04-11T22:31:48.779Z,99405.63
2023-04-11T22:34:52.864Z,99406.72
2023-04-11T22:37:35.933Z,99403.91
2023-04-11T22:40:26.617Z,99407.13
2023-04-11T22:43:14.137Z,99406.56
2023-04-11T22:46:05.648Z,99394.56
2023-04-11T22:48:36.120Z,99391.00
2023-04-11T22:51:10.802Z,99395.34
2023-04-11T22:53:58.072Z,99398.78
2023-04-11T22:57:05.573Z,99398.97
2023-04-11T22:59:33.812Z,99400.91
2023-04-11T23:02:23.294Z,99386.78
2023-04-11T23:04:53.698Z,99400.81
2023-04-11T23:07:57.896Z,99392.66
2023-04-11T23:10:38.651Z,99397.63
2023-04-11T23:13:08.799Z,99413.25
2023-04-11T23:15:37.491Z,99406.78
2023-04-11T23:18:06.013Z,99399.22
2023-04-11T23:20:37.169Z,99395.19
2023-04-11T23:23:06.947Z,99384.00
2023-04-11T23:25:42.991Z,99390.84
2023-04-11T23:28:11.166Z,99392.00
2023-04-11T23:30:40.452Z,99383.84
2023-04-11T23:33:09.565Z,99376.47
2023-04-11T23:35:47.281Z,99381.34
2023-04-11T23:38:34.587Z,99388.75
2023-04-11T23:41:18.776Z,99383.59
2023-04-11T23:43:46.773Z,99388.47
2023-04-11T23:46:17.631Z,99386.97
2023-04-11T23:48:47.267Z,99391.81
2023-04-11T23:51:15.533Z,99395.88
2023-04-11T23:53:42.929Z,99385.97
2023-04-11T23:56:10.923Z,99386.09
2023-04-11T23:58:38.388Z,99387.31
